sensor_id;sensor_type;location;lat;lon;timestamp;P1;durP1;ratioP1;P2;durP2;ratioP2
20954;SDS011;10636;19.390;-99.256;2023-05-19T00:01:41;11.10;;;10.15;;
20954;SDS011;10636;19.390;-99.256;2023-05-19T00:04:12;11.52;;;10.32;;
20954;SDS011;10636;19.390;-99.256;2023-05-19T00:06:41;11.35;;;10.45;;
20954;SDS011;10636;19.390;-99.256;2023-05-19T00:09:17;11.77;;;10.80;;
20954;SDS011;10636;19.390;-99.256;2023-05-19T00:11:46;12.20;;;11.10;;
20954;SDS011;10636;19.390;-99.256;2023-05-19T00:14:14;11.82;;;10.82;;
20954;SDS011;10636;19.390;-99.256;2023-05-19T00:16:46;11.52;;;10.52;;
20954;SDS011;10636;19.390;-99.256;2023-05-19T00:19:15;11.40;;;10.35;;
20954;SDS011;10636;19.390;-99.256;2023-05-19T00:21:43;12.32;;;11.13;;
20954;SDS011;10636;19.390;-99.256;2023-05-19T00:24:12;11.85;;;10.75;;
20954;SDS011;10636;19.390;-99.256;2023-05-19T00:26:42;12.57;;;11.27;;
20954;SDS011;10636;19.390;-99.256;2023-05-19T00:29:13;12.38;;;11.27;;
20954;SDS011;10636;19.390;-99.256;2023-05-19T00:31:43;12.70;;;11.45;;
20954;SDS011;10636;19.390;-99.256;2023-05-19T00:34:11;12.15;;;11.05;;
20954;SDS011;10636;19.390;-99.256;2023-05-19T00:36:40;11.35;;;10.27;;
20954;SDS011;10636;19.390;-99.256;2023-05-19T00:39:08;13.35;;;12.15;;
20954;SDS011;10636;19.390;-99.256;2023-05-19T00:41:44;13.27;;;11.98;;
20954;SDS011;10636;19.390;-99.256;2023-05-19T00:44:12;12.18;;;11.18;;
20954;SDS011;10636;19.390;-99.256;2023-05-19T00:46:41;12.27;;;11.27;;
20954;SDS011;10636;19.390;-99.256;2023-05-19T00:49:09;11.18;;;10.27;;
20954;SDS011;10636;19.390;-99.256;2023-05-19T00:51:38;10.77;;;9.82;;
20954;SDS011;10636;19.390;-99.256;2023-05-19T00:54:10;11.45;;;10.55;;
20954;SDS011;10636;19.390;-99.256;2023-05-19T00:56:39;11.40;;;10.40;;
20954;SDS011;10636;19.390;-99.256;2023-05-19T00:59:09;10.38;;;9.57;;
20954;SDS011;10636;19.390;-99.256;2023-05-19T01:01:38;11.15;;;10.15;;
20954;SDS011;10636;19.390;-99.256;2023-05-19T01:04:06;11.18;;;10.30;;
20954;SDS011;10636;19.390;-99.256;2023-05-19T01:06:36;9.90;;;8.95;;
20954;SDS011;10636;19.390;-99.256;2023-05-19T01:10:07;10.90;;;9.95;;
20954;SDS011;10636;19.390;-99.256;2023-05-19T01:12:58;10.20;;;9.30;;
20954;SDS011;10636;19.390;-99.256;2023-05-19T01:18:48;10.95;;;10.00;;
20954;SDS011;10636;19.390;-99.256;2023-05-19T01:24:47;11.32;;;10.30;;
20954;SDS011;10636;19.390;-99.256;2023-05-19T01:30:31;11.73;;;10.73;;
20954;SDS011;10636;19.390;-99.256;2023-05-19T01:33:07;11.32;;;10.43;;
20954;SDS011;10636;19.390;-99.256;2023-05-19T01:35:38;12.30;;;11.20;;
20954;SDS011;10636;19.390;-99.256;2023-05-19T01:38:11;12.30;;;11.20;;
20954;SDS011;10636;19.390;-99.256;2023-05-19T01:40:42;12.20;;;11.00;;
20954;SDS011;10636;19.390;-99.256;2023-05-19T01:43:12;12.40;;;11.30;;
20954;SDS011;10636;19.390;-99.256;2023-05-19T01:45:44;10.60;;;9.70;;
20954;SDS011;10636;19.390;-99.256;2023-05-19T01:48:14;10.65;;;9.73;;
20954;SDS011;10636;19.390;-99.256;2023-05-19T01:50:44;9.77;;;8.95;;
20954;SDS011;10636;19.390;-99.256;2023-05-19T01:53:13;10.25;;;9.35;;
20954;SDS011;10636;19.390;-99.256;2023-05-19T01:55:42;10.00;;;9.20;;
20954;SDS011;10636;19.390;-99.256;2023-05-19T01:58:16;9.35;;;8.50;;
20954;SDS011;10636;19.390;-99.256;2023-05-19T02:00:52;9.55;;;8.65;;
20954;SDS011;10636;19.390;-99.256;2023-05-19T02:03:34;9.38;;;8.48;;
20954;SDS011;10636;19.390;-99.256;2023-05-19T02:06:14;8.65;;;7.95;;
20954;SDS011;10636;19.390;-99.256;2023-05-19T02:08:56;8.95;;;8.18;;
20954;SDS011;10636;19.390;-99.256;2023-05-19T02:11:32;8.63;;;7.93;;
20954;SDS011;10636;19.390;-99.256;2023-05-19T02:14:07;8.73;;;7.82;;
20954;SDS011;10636;19.390;-99.256;2023-05-19T02:16:41;8.88;;;8.07;;
20954;SDS011;10636;19.390;-99.256;2023-05-19T02:19:20;8.45;;;7.75;;
20954;SDS011;10636;19.390;-99.256;2023-05-19T02:21:51;8.93;;;8.23;;
20954;SDS011;10636;19.390;-99.256;2023-05-19T02:24:19;8.95;;;8.10;;
20954;SDS011;10636;19.390;-99.256;2023-05-19T02:26:48;8.65;;;7.90;;
20954;SDS011;10636;19.390;-99.256;2023-05-19T02:29:17;8.45;;;7.65;;
20954;SDS011;10636;19.390;-99.256;2023-05-19T02:31:49;8.88;;;7.97;;
20954;SDS011;10636;19.390;-99.256;2023-05-19T02:34:18;8.85;;;8.10;;
20954;SDS011;10636;19.390;-99.256;2023-05-19T02:36:47;7.80;;;7.10;;
20954;SDS011;10636;19.390;-99.256;2023-05-19T02:39:16;8.02;;;7.32;;
20954;SDS011;10636;19.390;-99.256;2023-05-19T02:41:44;8.23;;;7.47;;
20954;SDS011;10636;19.390;-99.256;2023-05-19T02:44:12;7.47;;;6.75;;
20954;SDS011;10636;19.390;-99.256;2023-05-19T02:46:41;7.03;;;6.35;;
20954;SDS011;10636;19.390;-99.256;2023-05-19T02:49:11;6.72;;;6.13;;
20954;SDS011;10636;19.390;-99.256;2023-05-19T02:51:39;6.35;;;5.78;;
20954;SDS011;10636;19.390;-99.256;2023-05-19T02:54:08;5.93;;;5.43;;
20954;SDS011;10636;19.390;-99.256;2023-05-19T02:56:36;6.60;;;6.00;;
20954;SDS011;10636;19.390;-99.256;2023-05-19T02:59:07;6.10;;;5.50;;
20954;SDS011;10636;19.390;-99.256;2023-05-19T03:01:36;6.78;;;6.18;;
20954;SDS011;10636;19.390;-99.256;2023-05-19T03:04:04;10.00;;;9.10;;
20954;SDS011;10636;19.390;-99.256;2023-05-19T03:06:35;9.15;;;8.35;;
20954;SDS011;10636;19.390;-99.256;2023-05-19T03:09:03;9.18;;;8.38;;
20954;SDS011;10636;19.390;-99.256;2023-05-19T03:11:32;8.35;;;7.55;;
20954;SDS011;10636;19.390;-99.256;2023-05-19T03:14:00;8.23;;;7.43;;
20954;SDS011;10636;19.390;-99.256;2023-05-19T03:16:29;9.55;;;8.65;;
20954;SDS011;10636;19.390;-99.256;2023-05-19T03:18:58;8.80;;;8.00;;
20954;SDS011;10636;19.390;-99.256;2023-05-19T03:21:26;7.10;;;6.40;;
20954;SDS011;10636;19.390;-99.256;2023-05-19T03:23:58;6.10;;;5.50;;
20954;SDS011;10636;19.390;-99.256;2023-05-19T03:26:26;6.25;;;5.65;;
20954;SDS011;10636;19.390;-99.256;2023-05-19T03:28:55;5.90;;;5.40;;
20954;SDS011;10636;19.390;-99.256;2023-05-19T03:31:23;6.05;;;5.55;;
20954;SDS011;10636;19.390;-99.256;2023-05-19T03:33:52;5.30;;;4.80;;
20954;SDS011;10636;19.390;-99.256;2023-05-19T03:36:22;4.97;;;4.15;;
20954;SDS011;10636;19.390;-99.256;2023-05-19T03:38:50;4.80;;;4.30;;
20954;SDS011;10636;19.390;-99.256;2023-05-19T03:41:20;4.43;;;4.03;;
20954;SDS011;10636;19.390;-99.256;2023-05-19T03:43:49;3.75;;;3.45;;
20954;SDS011;10636;19.390;-99.256;2023-05-19T03:46:17;4.47;;;4.07;;
20954;SDS011;10636;19.390;-99.256;2023-05-19T03:48:46;4.13;;;3.72;;
20954;SDS011;10636;19.390;-99.256;2023-05-19T03:51:14;4.65;;;3.80;;
20954;SDS011;10636;19.390;-99.256;2023-05-19T03:53:43;4.78;;;4.38;;
20954;SDS011;10636;19.390;-99.256;2023-05-19T03:56:11;4.20;;;3.75;;
20954;SDS011;10636;19.390;-99.256;2023-05-19T03:58:43;4.40;;;4.00;;
20954;SDS011;10636;19.390;-99.256;2023-05-19T04:01:11;4.00;;;3.70;;
20954;SDS011;10636;19.390;-99.256;2023-05-19T04:03:40;4.00;;;3.60;;
20954;SDS011;10636;19.390;-99.256;2023-05-19T04:06:08;4.20;;;3.80;;
20954;SDS011;10636;19.390;-99.256;2023-05-19T04:08:37;4.38;;;3.97;;
20954;SDS011;10636;19.390;-99.256;2023-05-19T04:11:08;4.20;;;3.80;;
20954;SDS011;10636;19.390;-99.256;2023-05-19T04:13:37;4.05;;;3.75;;
20954;SDS011;10636;19.390;-99.256;2023-05-19T04:16:07;4.43;;;4.03;;
20954;SDS011;10636;19.390;-99.256;2023-05-19T04:18:36;4.40;;;4.00;;
20954;SDS011;10636;19.390;-99.256;2023-05-19T04:21:04;4.47;;;3.80;;
20954;SDS011;10636;19.390;-99.256;2023-05-19T04:23:33;4.30;;;3.90;;
20954;SDS011;10636;19.390;-99.256;2023-05-19T04:26:01;4.28;;;3.97;;
20954;SDS011;10636;19.390;-99.256;2023-05-19T04:28:31;4.50;;;4.05;;
20954;SDS011;10636;19.390;-99.256;2023-05-19T04:31:03;4.80;;;4.30;;
20954;SDS011;10636;19.390;-99.256;2023-05-19T04:33:37;4.70;;;4.30;;
20954;SDS011;10636;19.390;-99.256;2023-05-19T04:36:06;4.50;;;4.20;;
20954;SDS011;10636;19.390;-99.256;2023-05-19T04:38:36;4.68;;;4.30;;
20954;SDS011;10636;19.390;-99.256;2023-05-19T04:41:04;4.55;;;4.15;;
20954;SDS011;10636;19.390;-99.256;2023-05-19T04:43:35;4.45;;;4.05;;
20954;SDS011;10636;19.390;-99.256;2023-05-19T04:46:06;4.22;;;3.92;;
20954;SDS011;10636;19.390;-99.256;2023-05-19T04:48:34;4.25;;;3.85;;
20954;SDS011;10636;19.390;-99.256;2023-05-19T04:51:04;4.13;;;3.83;;
20954;SDS011;10636;19.390;-99.256;2023-05-19T04:53:33;4.30;;;4.00;;
20954;SDS011;10636;19.390;-99.256;2023-05-19T04:56:01;4.35;;;3.95;;
20954;SDS011;10636;19.390;-99.256;2023-05-19T04:58:30;4.00;;;3.70;;
20954;SDS011;10636;19.390;-99.256;2023-05-19T05:00:59;5.03;;;4.10;;
20954;SDS011;10636;19.390;-99.256;2023-05-19T05:03:28;4.60;;;4.20;;
20954;SDS011;10636;19.390;-99.256;2023-05-19T05:06:00;4.25;;;3.95;;
20954;SDS011;10636;19.390;-99.256;2023-05-19T05:08:29;4.30;;;3.90;;
20954;SDS011;10636;19.390;-99.256;2023-05-19T05:10:57;4.75;;;4.35;;
20954;SDS011;10636;19.390;-99.256;2023-05-19T05:13:26;4.82;;;4.43;;
20954;SDS011;10636;19.390;-99.256;2023-05-19T05:15:58;4.40;;;4.00;;
20954;SDS011;10636;19.390;-99.256;2023-05-19T05:18:29;4.45;;;4.05;;
20954;SDS011;10636;19.390;-99.256;2023-05-19T05:21:02;4.45;;;4.15;;
20954;SDS011;10636;19.390;-99.256;2023-05-19T05:23:34;4.80;;;4.30;;
20954;SDS011;10636;19.390;-99.256;2023-05-19T05:29:06;4.22;;;3.92;;
20954;SDS011;10636;19.390;-99.256;2023-05-19T05:31:39;4.43;;;4.03;;
20954;SDS011;10636;19.390;-99.256;2023-05-19T05:34:30;4.65;;;4.25;;
20954;SDS011;10636;19.390;-99.256;2023-05-19T05:37:00;4.35;;;4.05;;
20954;SDS011;10636;19.390;-99.256;2023-05-19T05:39:28;4.68;;;4.28;;
20954;SDS011;10636;19.390;-99.256;2023-05-19T05:41:57;4.20;;;3.90;;
20954;SDS011;10636;19.390;-99.256;2023-05-19T05:44:26;4.53;;;4.13;;
20954;SDS011;10636;19.390;-99.256;2023-05-19T05:46:55;4.60;;;4.20;;
20954;SDS011;10636;19.390;-99.256;2023-05-19T05:49:24;4.43;;;4.05;;
20954;SDS011;10636;19.390;-99.256;2023-05-19T05:51:53;4.57;;;4.28;;
20954;SDS011;10636;19.390;-99.256;2023-05-19T05:54:24;4.65;;;4.25;;
20954;SDS011;10636;19.390;-99.256;2023-05-19T05:56:53;4.68;;;4.28;;
20954;SDS011;10636;19.390;-99.256;2023-05-19T05:59:21;4.45;;;4.15;;
20954;SDS011;10636;19.390;-99.256;2023-05-19T06:01:50;4.70;;;4.30;;
20954;SDS011;10636;19.390;-99.256;2023-05-19T06:04:18;4.32;;;4.03;;
20954;SDS011;10636;19.390;-99.256;2023-05-19T06:06:47;4.60;;;4.20;;
20954;SDS011;10636;19.390;-99.256;2023-05-19T06:09:17;5.47;;;4.60;;
20954;SDS011;10636;19.390;-99.256;2023-05-19T06:11:47;4.90;;;4.50;;
20954;SDS011;10636;19.390;-99.256;2023-05-19T06:14:15;4.63;;;4.22;;
20954;SDS011;10636;19.390;-99.256;2023-05-19T06:16:44;4.80;;;4.40;;
20954;SDS011;10636;19.390;-99.256;2023-05-19T06:19:12;4.78;;;4.40;;
20954;SDS011;10636;19.390;-99.256;2023-05-19T06:21:41;4.47;;;4.18;;
20954;SDS011;10636;19.390;-99.256;2023-05-19T06:24:09;4.60;;;4.20;;
20954;SDS011;10636;19.390;-99.256;2023-05-19T06:26:37;4.97;;;4.57;;
20954;SDS011;10636;19.390;-99.256;2023-05-19T06:29:07;4.80;;;4.40;;
20954;SDS011;10636;19.390;-99.256;2023-05-19T06:31:36;4.88;;;4.38;;
20954;SDS011;10636;19.390;-99.256;2023-05-19T06:34:04;4.72;;;4.32;;
20954;SDS011;10636;19.390;-99.256;2023-05-19T06:36:34;5.10;;;4.70;;
20954;SDS011;10636;19.390;-99.256;2023-05-19T06:39:03;5.10;;;4.60;;
20954;SDS011;10636;19.390;-99.256;2023-05-19T06:41:31;5.22;;;4.82;;
20954;SDS011;10636;19.390;-99.256;2023-05-19T06:44:00;5.50;;;5.10;;
20954;SDS011;10636;19.390;-99.256;2023-05-19T06:46:30;5.10;;;4.80;;
20954;SDS011;10636;19.390;-99.256;2023-05-19T06:48:58;5.82;;;4.90;;
20954;SDS011;10636;19.390;-99.256;2023-05-19T06:51:26;5.75;;;5.28;;
20954;SDS011;10636;19.390;-99.256;2023-05-19T06:53:55;5.47;;;5.07;;
20954;SDS011;10636;19.390;-99.256;2023-05-19T06:56:24;5.70;;;4.78;;
20954;SDS011;10636;19.390;-99.256;2023-05-19T06:58:52;4.88;;;4.50;;
20954;SDS011;10636;19.390;-99.256;2023-05-19T07:01:21;5.15;;;4.75;;
20954;SDS011;10636;19.390;-99.256;2023-05-19T07:03:52;5.20;;;4.80;;
20954;SDS011;10636;19.390;-99.256;2023-05-19T07:06:21;5.13;;;4.72;;
20954;SDS011;10636;19.390;-99.256;2023-05-19T07:08:49;5.57;;;5.07;;
20954;SDS011;10636;19.390;-99.256;2023-05-19T07:11:17;5.47;;;4.97;;
20954;SDS011;10636;19.390;-99.256;2023-05-19T07:13:46;5.47;;;4.97;;
20954;SDS011;10636;19.390;-99.256;2023-05-19T07:16:14;5.20;;;4.80;;
20954;SDS011;10636;19.390;-99.256;2023-05-19T07:18:43;5.28;;;4.78;;
20954;SDS011;10636;19.390;-99.256;2023-05-19T07:21:13;5.18;;;4.70;;
20954;SDS011;10636;19.390;-99.256;2023-05-19T07:23:41;5.38;;;4.88;;
20954;SDS011;10636;19.390;-99.256;2023-05-19T07:26:10;5.60;;;5.10;;
20954;SDS011;10636;19.390;-99.256;2023-05-19T07:28:38;5.55;;;5.07;;
20954;SDS011;10636;19.390;-99.256;2023-05-19T07:31:07;5.50;;;5.00;;
20954;SDS011;10636;19.390;-99.256;2023-05-19T07:33:36;5.47;;;4.97;;
20954;SDS011;10636;19.390;-99.256;2023-05-19T07:36:04;5.60;;;5.10;;
20954;SDS011;10636;19.390;-99.256;2023-05-19T07:38:34;5.47;;;5.07;;
20954;SDS011;10636;19.390;-99.256;2023-05-19T07:41:03;5.10;;;4.70;;
20954;SDS011;10636;19.390;-99.256;2023-05-19T07:43:31;5.72;;;5.30;;
20954;SDS011;10636;19.390;-99.256;2023-05-19T07:46:00;5.90;;;5.40;;
20954;SDS011;10636;19.390;-99.256;2023-05-19T07:48:28;5.88;;;5.28;;
20954;SDS011;10636;19.390;-99.256;2023-05-19T07:50:56;5.50;;;5.00;;
20954;SDS011;10636;19.390;-99.256;2023-05-19T07:53:25;5.50;;;5.10;;
20954;SDS011;10636;19.390;-99.256;2023-05-19T07:55:55;5.57;;;5.07;;
20954;SDS011;10636;19.390;-99.256;2023-05-19T07:58:23;5.40;;;5.00;;
20954;SDS011;10636;19.390;-99.256;2023-05-19T08:00:52;5.70;;;5.20;;
20954;SDS011;10636;19.390;-99.256;2023-05-19T08:03:23;5.35;;;4.95;;
20954;SDS011;10636;19.390;-99.256;2023-05-19T08:05:51;5.57;;;5.18;;
20954;SDS011;10636;19.390;-99.256;2023-05-19T08:08:20;5.40;;;5.00;;
20954;SDS011;10636;19.390;-99.256;2023-05-19T08:10:48;5.40;;;5.00;;
20954;SDS011;10636;19.390;-99.256;2023-05-19T08:13:18;5.85;;;5.45;;
20954;SDS011;10636;19.390;-99.256;2023-05-19T08:15:47;5.65;;;5.25;;
20954;SDS011;10636;19.390;-99.256;2023-05-19T08:18:15;5.53;;;5.13;;
20954;SDS011;10636;19.390;-99.256;2023-05-19T08:20:44;5.25;;;4.85;;
20954;SDS011;10636;19.390;-99.256;2023-05-19T08:23:13;5.63;;;5.22;;
20954;SDS011;10636;19.390;-99.256;2023-05-19T08:25:42;5.63;;;5.13;;
20954;SDS011;10636;19.390;-99.256;2023-05-19T08:28:10;5.60;;;5.10;;
20954;SDS011;10636;19.390;-99.256;2023-05-19T08:30:40;5.65;;;5.22;;
20954;SDS011;10636;19.390;-99.256;2023-05-19T08:33:09;5.78;;;5.30;;
20954;SDS011;10636;19.390;-99.256;2023-05-19T08:35:37;5.85;;;5.35;;
20954;SDS011;10636;19.390;-99.256;2023-05-19T08:38:08;5.68;;;5.18;;
20954;SDS011;10636;19.390;-99.256;2023-05-19T08:40:36;5.90;;;5.40;;
20954;SDS011;10636;19.390;-99.256;2023-05-19T08:43:07;5.55;;;5.15;;
20954;SDS011;10636;19.390;-99.256;2023-05-19T08:45:36;5.78;;;5.38;;
20954;SDS011;10636;19.390;-99.256;2023-05-19T08:48:09;5.72;;;5.32;;
20954;SDS011;10636;19.390;-99.256;2023-05-19T08:50:39;5.43;;;4.90;;
20954;SDS011;10636;19.390;-99.256;2023-05-19T08:53:11;5.82;;;5.35;;
20954;SDS011;10636;19.390;-99.256;2023-05-19T08:55:49;6.05;;;5.55;;
20954;SDS011;10636;19.390;-99.256;2023-05-19T08:58:25;5.88;;;5.47;;
20954;SDS011;10636;19.390;-99.256;2023-05-19T09:00:55;5.82;;;5.43;;
20954;SDS011;10636;19.390;-99.256;2023-05-19T09:03:26;6.00;;;5.50;;
20954;SDS011;10636;19.390;-99.256;2023-05-19T09:05:55;6.03;;;5.53;;
20954;SDS011;10636;19.390;-99.256;2023-05-19T09:08:23;6.22;;;5.72;;
20954;SDS011;10636;19.390;-99.256;2023-05-19T09:10:52;6.45;;;5.95;;
20954;SDS011;10636;19.390;-99.256;2023-05-19T09:13:20;6.28;;;5.78;;
20954;SDS011;10636;19.390;-99.256;2023-05-19T09:15:49;6.50;;;6.05;;
20954;SDS011;10636;19.390;-99.256;2023-05-19T09:18:22;6.43;;;6.00;;
20954;SDS011;10636;19.390;-99.256;2023-05-19T09:20:55;6.88;;;6.28;;
20954;SDS011;10636;19.390;-99.256;2023-05-19T09:23:27;6.85;;;6.35;;
20954;SDS011;10636;19.390;-99.256;2023-05-19T09:26:00;6.60;;;6.10;;
20954;SDS011;10636;19.390;-99.256;2023-05-19T09:28:32;6.40;;;5.90;;
20954;SDS011;10636;19.390;-99.256;2023-05-19T09:31:02;6.38;;;5.88;;
20954;SDS011;10636;19.390;-99.256;2023-05-19T09:33:33;6.38;;;5.88;;
20954;SDS011;10636;19.390;-99.256;2023-05-19T09:36:03;6.70;;;6.18;;
20954;SDS011;10636;19.390;-99.256;2023-05-19T09:38:33;6.50;;;6.00;;
20954;SDS011;10636;19.390;-99.256;2023-05-19T09:41:02;6.65;;;6.05;;
20954;SDS011;10636;19.390;-99.256;2023-05-19T09:43:32;6.72;;;6.22;;
20954;SDS011;10636;19.390;-99.256;2023-05-19T09:46:02;7.10;;;6.50;;
20954;SDS011;10636;19.390;-99.256;2023-05-19T09:48:33;7.22;;;6.63;;
20954;SDS011;10636;19.390;-99.256;2023-05-19T09:51:02;7.72;;;7.05;;
20954;SDS011;10636;19.390;-99.256;2023-05-19T09:53:32;7.20;;;6.70;;
20954;SDS011;10636;19.390;-99.256;2023-05-19T09:56:01;7.10;;;6.60;;
20954;SDS011;10636;19.390;-99.256;2023-05-19T09:58:30;7.07;;;6.57;;
20954;SDS011;10636;19.390;-99.256;2023-05-19T10:01:00;7.25;;;6.65;;
20954;SDS011;10636;19.390;-99.256;2023-05-19T10:03:30;8.15;;;7.35;;
20954;SDS011;10636;19.390;-99.256;2023-05-19T10:06:01;7.78;;;7.15;;
20954;SDS011;10636;19.390;-99.256;2023-05-19T10:08:33;7.90;;;7.30;;
20954;SDS011;10636;19.390;-99.256;2023-05-19T10:11:04;8.10;;;7.40;;
20954;SDS011;10636;19.390;-99.256;2023-05-19T10:13:33;7.97;;;7.28;;
20954;SDS011;10636;19.390;-99.256;2023-05-19T10:16:03;8.07;;;7.47;;
20954;SDS011;10636;19.390;-99.256;2023-05-19T10:18:34;8.35;;;7.65;;
20954;SDS011;10636;19.390;-99.256;2023-05-19T10:21:04;8.23;;;7.53;;
20954;SDS011;10636;19.390;-99.256;2023-05-19T10:23:34;9.40;;;8.60;;
20954;SDS011;10636;19.390;-99.256;2023-05-19T10:26:03;9.15;;;8.45;;
20954;SDS011;10636;19.390;-99.256;2023-05-19T10:28:34;9.18;;;8.48;;
20954;SDS011;10636;19.390;-99.256;2023-05-19T10:31:05;9.88;;;8.88;;
20954;SDS011;10636;19.390;-99.256;2023-05-19T10:33:40;9.68;;;8.98;;
20954;SDS011;10636;19.390;-99.256;2023-05-19T10:36:30;9.73;;;8.93;;
20954;SDS011;10636;19.390;-99.256;2023-05-19T10:39:06;9.20;;;8.30;;
20954;SDS011;10636;19.390;-99.256;2023-05-19T10:41:44;10.10;;;9.30;;
20954;SDS011;10636;19.390;-99.256;2023-05-19T10:44:22;9.45;;;8.65;;
20954;SDS011;10636;19.390;-99.256;2023-05-19T10:47:01;9.55;;;8.77;;
20954;SDS011;10636;19.390;-99.256;2023-05-19T10:49:34;9.70;;;9.00;;
20954;SDS011;10636;19.390;-99.256;2023-05-19T10:52:03;10.15;;;9.25;;
20954;SDS011;10636;19.390;-99.256;2023-05-19T10:54:47;10.25;;;9.23;;
20954;SDS011;10636;19.390;-99.256;2023-05-19T10:57:16;9.95;;;9.10;;
20954;SDS011;10636;19.390;-99.256;2023-05-19T10:59:46;10.07;;;9.20;;
20954;SDS011;10636;19.390;-99.256;2023-05-19T11:05:09;10.05;;;9.25;;
20954;SDS011;10636;19.390;-99.256;2023-05-19T11:07:42;9.73;;;8.80;;
20954;SDS011;10636;19.390;-99.256;2023-05-19T11:10:12;10.07;;;9.27;;
20954;SDS011;10636;19.390;-99.256;2023-05-19T11:12:41;9.75;;;8.98;;
20954;SDS011;10636;19.390;-99.256;2023-05-19T11:15:12;9.82;;;8.95;;
20954;SDS011;10636;19.390;-99.256;2023-05-19T11:17:43;9.73;;;8.90;;
20954;SDS011;10636;19.390;-99.256;2023-05-19T11:20:24;9.45;;;8.65;;
20954;SDS011;10636;19.390;-99.256;2023-05-19T11:23:00;9.50;;;8.60;;
20954;SDS011;10636;19.390;-99.256;2023-05-19T11:25:40;9.93;;;9.02;;
20954;SDS011;10636;19.390;-99.256;2023-05-19T11:28:09;9.88;;;8.98;;
20954;SDS011;10636;19.390;-99.256;2023-05-19T11:30:41;9.55;;;8.75;;
20954;SDS011;10636;19.390;-99.256;2023-05-19T11:33:11;10.27;;;9.45;;
20954;SDS011;10636;19.390;-99.256;2023-05-19T11:35:41;10.10;;;9.10;;
20954;SDS011;10636;19.390;-99.256;2023-05-19T11:38:12;10.40;;;9.40;;
20954;SDS011;10636;19.390;-99.256;2023-05-19T11:40:40;9.65;;;8.73;;
20954;SDS011;10636;19.390;-99.256;2023-05-19T11:43:09;9.75;;;8.82;;
20954;SDS011;10636;19.390;-99.256;2023-05-19T11:45:38;10.07;;;8.90;;
20954;SDS011;10636;19.390;-99.256;2023-05-19T11:48:09;10.50;;;9.50;;
20954;SDS011;10636;19.390;-99.256;2023-05-19T11:50:41;10.50;;;9.50;;
20954;SDS011;10636;19.390;-99.256;2023-05-19T11:53:11;10.55;;;9.52;;
20954;SDS011;10636;19.390;-99.256;2023-05-19T11:55:44;9.75;;;8.95;;
20954;SDS011;10636;19.390;-99.256;2023-05-19T11:58:12;10.15;;;9.15;;
20954;SDS011;10636;19.390;-99.256;2023-05-19T12:00:42;10.68;;;9.68;;
20954;SDS011;10636;19.390;-99.256;2023-05-19T12:03:12;11.40;;;10.50;;
20954;SDS011;10636;19.390;-99.256;2023-05-19T12:05:44;11.75;;;10.68;;
20954;SDS011;10636;19.390;-99.256;2023-05-19T12:08:15;12.02;;;10.82;;
20954;SDS011;10636;19.390;-99.256;2023-05-19T12:10:46;11.90;;;10.85;;
20954;SDS011;10636;19.390;-99.256;2023-05-19T12:13:16;11.77;;;10.77;;
20954;SDS011;10636;19.390;-99.256;2023-05-19T12:15:47;11.93;;;10.73;;
20954;SDS011;10636;19.390;-99.256;2023-05-19T12:18:18;11.77;;;10.45;;
20954;SDS011;10636;19.390;-99.256;2023-05-19T12:20:48;12.88;;;10.98;;
20954;SDS011;10636;19.390;-99.256;2023-05-19T12:23:17;12.48;;;11.25;;
20954;SDS011;10636;19.390;-99.256;2023-05-19T12:25:48;11.63;;;10.63;;
20954;SDS011;10636;19.390;-99.256;2023-05-19T12:28:18;12.23;;;11.02;;
20954;SDS011;10636;19.390;-99.256;2023-05-19T12:30:47;12.70;;;11.40;;
20954;SDS011;10636;19.390;-99.256;2023-05-19T12:33:19;12.77;;;11.48;;
20954;SDS011;10636;19.390;-99.256;2023-05-19T12:35:50;13.20;;;11.70;;
20954;SDS011;10636;19.390;-99.256;2023-05-19T12:38:20;13.52;;;12.23;;
20954;SDS011;10636;19.390;-99.256;2023-05-19T12:40:49;16.10;;;14.60;;
20954;SDS011;10636;19.390;-99.256;2023-05-19T12:43:20;16.10;;;14.30;;
20954;SDS011;10636;19.390;-99.256;2023-05-19T12:45:49;17.38;;;15.90;;
20954;SDS011;10636;19.390;-99.256;2023-05-19T12:48:20;18.08;;;16.58;;
20954;SDS011;10636;19.390;-99.256;2023-05-19T12:50:52;16.63;;;15.02;;
20954;SDS011;10636;19.390;-99.256;2023-05-19T12:53:20;17.50;;;15.77;;
20954;SDS011;10636;19.390;-99.256;2023-05-19T12:55:50;16.80;;;15.20;;
20954;SDS011;10636;19.390;-99.256;2023-05-19T12:58:19;18.00;;;16.20;;
20954;SDS011;10636;19.390;-99.256;2023-05-19T13:00:48;18.80;;;17.20;;
20954;SDS011;10636;19.390;-99.256;2023-05-19T13:03:17;18.63;;;17.02;;
20954;SDS011;10636;19.390;-99.256;2023-05-19T13:05:46;18.63;;;17.02;;
20954;SDS011;10636;19.390;-99.256;2023-05-19T13:08:18;20.15;;;18.45;;
20954;SDS011;10636;19.390;-99.256;2023-05-19T13:10:48;17.58;;;15.77;;
20954;SDS011;10636;19.390;-99.256;2023-05-19T13:13:16;17.75;;;16.23;;
20954;SDS011;10636;19.390;-99.256;2023-05-19T13:15:45;16.10;;;14.85;;
20954;SDS011;10636;19.390;-99.256;2023-05-19T13:18:14;17.23;;;15.73;;
20954;SDS011;10636;19.390;-99.256;2023-05-19T13:20:43;15.27;;;13.85;;
20954;SDS011;10636;19.390;-99.256;2023-05-19T13:23:14;16.25;;;14.82;;
20954;SDS011;10636;19.390;-99.256;2023-05-19T13:25:44;16.42;;;14.93;;
20954;SDS011;10636;19.390;-99.256;2023-05-19T13:28:13;16.15;;;14.85;;
20954;SDS011;10636;19.390;-99.256;2023-05-19T13:30:42;15.85;;;14.35;;
20954;SDS011;10636;19.390;-99.256;2023-05-19T13:33:11;14.60;;;13.32;;
20954;SDS011;10636;19.390;-99.256;2023-05-19T13:35:39;14.95;;;13.63;;
20954;SDS011;10636;19.390;-99.256;2023-05-19T13:38:08;13.75;;;12.55;;
20954;SDS011;10636;19.390;-99.256;2023-05-19T13:40:38;13.60;;;12.20;;
20954;SDS011;10636;19.390;-99.256;2023-05-19T13:43:07;13.95;;;12.70;;
20954;SDS011;10636;19.390;-99.256;2023-05-19T13:45:35;14.00;;;12.80;;
20954;SDS011;10636;19.390;-99.256;2023-05-19T13:48:06;14.40;;;13.00;;
20954;SDS011;10636;19.390;-99.256;2023-05-19T13:50:36;14.65;;;13.32;;
20954;SDS011;10636;19.390;-99.256;2023-05-19T13:53:04;15.65;;;14.35;;
20954;SDS011;10636;19.390;-99.256;2023-05-19T13:55:33;15.50;;;13.90;;
20954;SDS011;10636;19.390;-99.256;2023-05-19T13:58:03;15.13;;;13.63;;
20954;SDS011;10636;19.390;-99.256;2023-05-19T14:00:31;16.45;;;14.77;;
20954;SDS011;10636;19.390;-99.256;2023-05-19T14:03:01;17.45;;;15.95;;
20954;SDS011;10636;19.390;-99.256;2023-05-19T14:05:29;19.08;;;17.33;;
20954;SDS011;10636;19.390;-99.256;2023-05-19T14:07:58;18.52;;;16.70;;
20954;SDS011;10636;19.390;-99.256;2023-05-19T14:10:28;19.27;;;17.67;;
20954;SDS011;10636;19.390;-99.256;2023-05-19T14:12:56;20.25;;;18.55;;
20954;SDS011;10636;19.390;-99.256;2023-05-19T14:15:26;22.83;;;20.73;;
20954;SDS011;10636;19.390;-99.256;2023-05-19T14:17:55;21.65;;;19.65;;
20954;SDS011;10636;19.390;-99.256;2023-05-19T14:20:23;21.20;;;18.98;;
20954;SDS011;10636;19.390;-99.256;2023-05-19T14:22:51;22.77;;;20.58;;
20954;SDS011;10636;19.390;-99.256;2023-05-19T14:25:20;20.67;;;18.65;;
20954;SDS011;10636;19.390;-99.256;2023-05-19T14:27:48;20.40;;;18.25;;
20954;SDS011;10636;19.390;-99.256;2023-05-19T14:30:17;20.35;;;18.13;;
20954;SDS011;10636;19.390;-99.256;2023-05-19T14:32:47;20.95;;;18.85;;
20954;SDS011;10636;19.390;-99.256;2023-05-19T14:35:15;22.00;;;19.80;;
20954;SDS011;10636;19.390;-99.256;2023-05-19T14:37:44;21.73;;;18.67;;
20954;SDS011;10636;19.390;-99.256;2023-05-19T14:40:12;20.95;;;18.75;;
20954;SDS011;10636;19.390;-99.256;2023-05-19T14:42:43;21.27;;;19.08;;
20954;SDS011;10636;19.390;-99.256;2023-05-19T14:45:12;22.75;;;20.40;;
20954;SDS011;10636;19.390;-99.256;2023-05-19T14:47:41;21.98;;;19.88;;